sensor_id;sensor_type;location;lat;lon;timestamp;temperature;humidity
2723;DHT22;1369;53.216;10.396;2024-03-23T00:56:10;7.90;99.90
2723;DHT22;1369;53.216;10.396;2024-03-23T00:58:36;7.80;99.90
2723;DHT22;1369;53.216;10.396;2024-03-23T01:01:01;7.80;99.90
2723;DHT22;1369;53.216;10.396;2024-03-23T01:03:29;7.80;99.90
2723;DHT22;1369;53.216;10.396;2024-03-23T01:06:02;7.80;99.90
2723;DHT22;1369;53.216;10.396;2024-03-23T01:08:28;7.70;99.90
2723;DHT22;1369;53.216;10.396;2024-03-23T01:10:58;7.70;99.90
2723;DHT22;1369;53.216;10.396;2024-03-23T01:13:25;7.70;99.90
2723;DHT22;1369;53.216;10.396;2024-03-23T01:15:51;7.60;99.90
2723;DHT22;1369;53.216;10.396;2024-03-23T01:18:18;7.60;99.90
2723;DHT22;1369;53.216;10.396;2024-03-23T01:20:44;7.70;99.90
2723;DHT22;1369;53.216;10.396;2024-03-23T01:23:10;7.60;99.90
2723;DHT22;1369;53.216;10.396;2024-03-23T01:25:36;7.60;99.90
2723;DHT22;1369;53.216;10.396;2024-03-23T01:28:01;7.60;99.90
2723;DHT22;1369;53.216;10.396;2024-03-23T01:30:27;7.50;99.90
2723;DHT22;1369;53.216;10.396;2024-03-23T01:32:53;7.50;99.90
2723;DHT22;1369;53.216;10.396;2024-03-23T01:35:19;7.60;99.90
2723;DHT22;1369;53.216;10.396;2024-03-23T01:37:45;7.70;99.90
2723;DHT22;1369;53.216;10.396;2024-03-23T01:40:11;7.70;99.90
2723;DHT22;1369;53.216;10.396;2024-03-23T01:42:39;7.70;99.90
2723;DHT22;1369;53.216;10.396;2024-03-23T01:45:07;7.70;99.90
2723;DHT22;1369;53.216;10.396;2024-03-23T01:47:33;7.70;99.90
2723;DHT22;1369;53.216;10.396;2024-03-23T01:49:59;7.70;99.90
2723;DHT22;1369;53.216;10.396;2024-03-23T01:52:26;7.70;99.90
2723;DHT22;1369;53.216;10.396;2024-03-23T01:54:52;7.70;99.90
2723;DHT22;1369;53.216;10.396;2024-03-23T01:57:18;7.70;99.90
2723;DHT22;1369;53.216;10.396;2024-03-23T01:59:45;7.70;99.90
2723;DHT22;1369;53.216;10.396;2024-03-23T02:02:11;7.70;99.90
2723;DHT22;1369;53.216;10.396;2024-03-23T02:04:37;7.70;99.90
2723;DHT22;1369;53.216;10.396;2024-03-23T02:07:02;7.60;99.90
2723;DHT22;1369;53.216;10.396;2024-03-23T02:09:30;7.60;99.90
2723;DHT22;1369;53.216;10.396;2024-03-23T02:11:57;7.70;99.90
2723;DHT22;1369;53.216;10.396;2024-03-23T02:14:23;7.60;99.90
2723;DHT22;1369;53.216;10.396;2024-03-23T02:16:48;7.60;99.90
2723;DHT22;1369;53.216;10.396;2024-03-23T02:19:14;7.50;99.90
2723;DHT22;1369;53.216;10.396;2024-03-23T02:21:40;7.60;99.90
2723;DHT22;1369;53.216;10.396;2024-03-23T02:24:05;7.60;99.90
2723;DHT22;1369;53.216;10.396;2024-03-23T02:26:31;7.50;99.90
2723;DHT22;1369;53.216;10.396;2024-03-23T02:28:57;7.50;99.90
2723;DHT22;1369;53.216;10.396;2024-03-23T02:31:23;7.40;99.90
2723;DHT22;1369;53.216;10.396;2024-03-23T02:33:48;7.40;99.90
2723;DHT22;1369;53.216;10.396;2024-03-23T02:36:14;7.40;99.90
2723;DHT22;1369;53.216;10.396;2024-03-23T02:38:39;7.40;99.90
2723;DHT22;1369;53.216;10.396;2024-03-23T02:41:05;7.30;99.90
2723;DHT22;1369;53.216;10.396;2024-03-23T02:43:31;7.30;99.90
2723;DHT22;1369;53.216;10.396;2024-03-23T02:45:57;7.20;99.90
2723;DHT22;1369;53.216;10.396;2024-03-23T02:48:23;7.30;99.90
2723;DHT22;1369;53.216;10.396;2024-03-23T02:50:49;7.20;99.90
2723;DHT22;1369;53.216;10.396;2024-03-23T02:53:15;7.20;99.90
2723;DHT22;1369;53.216;10.396;2024-03-23T02:55:40;7.20;99.90
2723;DHT22;1369;53.216;10.396;2024-03-23T02:58:06;7.10;99.90
2723;DHT22;1369;53.216;10.396;2024-03-23T03:00:31;7.10;99.90
2723;DHT22;1369;53.216;10.396;2024-03-23T03:02:57;7.00;99.90
2723;DHT22;1369;53.216;10.396;2024-03-23T03:05:23;7.00;99.90
2723;DHT22;1369;53.216;10.396;2024-03-23T03:07:48;6.90;99.90
2723;DHT22;1369;53.216;10.396;2024-03-23T03:10:14;6.80;99.90
2723;DHT22;1369;53.216;10.396;2024-03-23T03:12:40;6.80;99.90
2723;DHT22;1369;53.216;10.396;2024-03-23T03:15:06;6.80;99.90
2723;DHT22;1369;53.216;10.396;2024-03-23T03:17:31;6.80;99.90
2723;DHT22;1369;53.216;10.396;2024-03-23T03:19:57;6.80;99.90
2723;DHT22;1369;53.216;10.396;2024-03-23T03:22:23;6.80;99.90
2723;DHT22;1369;53.216;10.396;2024-03-23T03:24:49;6.80;99.90
2723;DHT22;1369;53.216;10.396;2024-03-23T03:27:15;6.80;99.90
2723;DHT22;1369;53.216;10.396;2024-03-23T03:29:40;6.90;99.90
2723;DHT22;1369;53.216;10.396;2024-03-23T03:32:06;6.80;99.90
2723;DHT22;1369;53.216;10.396;2024-03-23T03:34:32;6.90;99.90
2723;DHT22;1369;53.216;10.396;2024-03-23T03:36:57;6.80;99.90
2723;DHT22;1369;53.216;10.396;2024-03-23T03:39:24;6.80;99.90
2723;DHT22;1369;53.216;10.396;2024-03-23T03:41:50;6.80;99.90
2723;DHT22;1369;53.216;10.396;2024-03-23T03:44:16;6.80;99.90
2723;DHT22;1369;53.216;10.396;2024-03-23T03:46:42;6.70;99.90
2723;DHT22;1369;53.216;10.396;2024-03-23T03:49:08;6.80;99.90
2723;DHT22;1369;53.216;10.396;2024-03-23T03:51:33;6.70;99.90
2723;DHT22;1369;53.216;10.396;2024-03-23T03:53:59;6.80;99.90
2723;DHT22;1369;53.216;10.396;2024-03-23T03:56:25;6.80;99.90
2723;DHT22;1369;53.216;10.396;2024-03-23T03:58:50;6.80;99.90
2723;DHT22;1369;53.216;10.396;2024-03-23T04:01:16;6.80;99.90
2723;DHT22;1369;53.216;10.396;2024-03-23T04:03:43;6.80;99.90
2723;DHT22;1369;53.216;10.396;2024-03-23T04:06:09;6.80;99.90
2723;DHT22;1369;53.216;10.396;2024-03-23T04:08:36;6.80;99.90
2723;DHT22;1369;53.216;10.396;2024-03-23T04:11:02;6.70;99.90
2723;DHT22;1369;53.216;10.396;2024-03-23T04:13:28;6.70;99.90
2723;DHT22;1369;53.216;10.396;2024-03-23T04:15:56;6.70;99.90
2723;DHT22;1369;53.216;10.396;2024-03-23T04:18:22;6.80;99.90
2723;DHT22;1369;53.216;10.396;2024-03-23T04:20:51;6.80;99.90
2723;DHT22;1369;53.216;10.396;2024-03-23T04:23:17;6.70;99.90
2723;DHT22;1369;53.216;10.396;2024-03-23T04:25:43;6.80;99.90
2723;DHT22;1369;53.216;10.396;2024-03-23T04:28:09;6.80;99.90
2723;DHT22;1369;53.216;10.396;2024-03-23T04:30:34;6.70;99.90
2723;DHT22;1369;53.216;10.396;2024-03-23T04:33:00;6.70;99.90
2723;DHT22;1369;53.216;10.396;2024-03-23T04:35:26;6.60;99.90
2723;DHT22;1369;53.216;10.396;2024-03-23T04:37:53;6.60;99.90
2723;DHT22;1369;53.216;10.396;2024-03-23T04:40:19;6.60;99.90
2723;DHT22;1369;53.216;10.396;2024-03-23T04:42:44;6.50;99.90
2723;DHT22;1369;53.216;10.396;2024-03-23T04:45:10;6.50;99.90
2723;DHT22;1369;53.216;10.396;2024-03-23T04:47:40;6.60;99.90
2723;DHT22;1369;53.216;10.396;2024-03-23T04:50:06;6.60;99.90
2723;DHT22;1369;53.216;10.396;2024-03-23T04:52:31;6.60;99.90
2723;DHT22;1369;53.216;10.396;2024-03-23T04:54:57;6.60;99.90
2723;DHT22;1369;53.216;10.396;2024-03-23T04:57:23;6.60;99.90
2723;DHT22;1369;53.216;10.396;2024-03-23T04:59:48;6.60;99.90
2723;DHT22;1369;53.216;10.396;2024-03-23T05:02:14;6.60;99.90
2723;DHT22;1369;53.216;10.396;2024-03-23T05:04:40;6.60;99.90
2723;DHT22;1369;53.216;10.396;2024-03-23T05:07:06;6.50;99.90
2723;DHT22;1369;53.216;10.396;2024-03-23T05:09:32;6.60;99.90
2723;DHT22;1369;53.216;10.396;2024-03-23T05:11:59;6.60;99.90
2723;DHT22;1369;53.216;10.396;2024-03-23T05:14:26;6.60;99.90
2723;DHT22;1369;53.216;10.396;2024-03-23T05:16:52;6.70;99.90
2723;DHT22;1369;53.216;10.396;2024-03-23T05:19:18;6.80;99.90
2723;DHT22;1369;53.216;10.396;2024-03-23T05:21:44;6.60;99.90
2723;DHT22;1369;53.216;10.396;2024-03-23T05:24:09;6.50;99.90
2723;DHT22;1369;53.216;10.396;2024-03-23T05:26:35;6.50;99.90
2723;DHT22;1369;53.216;10.396;2024-03-23T05:29:01;6.70;99.90
2723;DHT22;1369;53.216;10.396;2024-03-23T05:31:28;6.80;99.90
2723;DHT22;1369;53.216;10.396;2024-03-23T05:33:54;6.60;99.90
2723;DHT22;1369;53.216;10.396;2024-03-23T05:36:20;6.60;99.90
2723;DHT22;1369;53.216;10.396;2024-03-23T05:38:45;6.70;99.90
2723;DHT22;1369;53.216;10.396;2024-03-23T05:41:11;6.60;99.90
2723;DHT22;1369;53.216;10.396;2024-03-23T05:43:37;6.70;99.90
2723;DHT22;1369;53.216;10.396;2024-03-23T05:46:02;6.60;99.90
2723;DHT22;1369;53.216;10.396;2024-03-23T05:48:30;6.70;99.90
2723;DHT22;1369;53.216;10.396;2024-03-23T05:50:56;6.70;99.90
2723;DHT22;1369;53.216;10.396;2024-03-23T05:53:21;6.80;99.90
2723;DHT22;1369;53.216;10.396;2024-03-23T05:55:47;6.80;99.90
2723;DHT22;1369;53.216;10.396;2024-03-23T05:58:17;6.80;99.90
2723;DHT22;1369;53.216;10.396;2024-03-23T06:00:44;6.80;99.90
2723;DHT22;1369;53.216;10.396;2024-03-23T06:03:10;7.00;99.90
2723;DHT22;1369;53.216;10.396;2024-03-23T06:05:36;6.90;99.90
2723;DHT22;1369;53.216;10.396;2024-03-23T06:08:03;7.20;99.90
2723;DHT22;1369;53.216;10.396;2024-03-23T06:10:28;7.00;99.90
2723;DHT22;1369;53.216;10.396;2024-03-23T06:12:54;7.00;99.90
2723;DHT22;1369;53.216;10.396;2024-03-23T06:15:20;7.00;99.90
2723;DHT22;1369;53.216;10.396;2024-03-23T06:17:45;7.10;99.90
2723;DHT22;1369;53.216;10.396;2024-03-23T06:20:12;7.10;99.90
2723;DHT22;1369;53.216;10.396;2024-03-23T06:22:38;7.20;99.90
2723;DHT22;1369;53.216;10.396;2024-03-23T06:25:04;7.60;99.90
2723;DHT22;1369;53.216;10.396;2024-03-23T06:27:29;7.30;99.90
2723;DHT22;1369;53.216;10.396;2024-03-23T06:29:56;7.40;99.90
2723;DHT22;1369;53.216;10.396;2024-03-23T06:32:22;7.40;99.90
2723;DHT22;1369;53.216;10.396;2024-03-23T06:34:48;7.40;99.90
2723;DHT22;1369;53.216;10.396;2024-03-23T06:37:13;7.50;99.90
2723;DHT22;1369;53.216;10.396;2024-03-23T06:39:39;7.50;99.90
2723;DHT22;1369;53.216;10.396;2024-03-23T06:42:05;8.00;99.90
2723;DHT22;1369;53.216;10.396;2024-03-23T06:44:30;7.60;99.90
2723;DHT22;1369;53.216;10.396;2024-03-23T06:46:57;7.70;99.90
2723;DHT22;1369;53.216;10.396;2024-03-23T06:49:23;7.70;99.90
2723;DHT22;1369;53.216;10.396;2024-03-23T06:51:49;7.90;99.90
2723;DHT22;1369;53.216;10.396;2024-03-23T06:54:14;7.90;99.90
2723;DHT22;1369;53.216;10.396;2024-03-23T06:56:40;8.00;99.90
2723;DHT22;1369;53.216;10.396;2024-03-23T06:59:06;8.10;99.90
2723;DHT22;1369;53.216;10.396;2024-03-23T07:01:32;8.20;99.90
2723;DHT22;1369;53.216;10.396;2024-03-23T07:03:58;8.50;99.90
2723;DHT22;1369;53.216;10.396;2024-03-23T07:06:23;8.60;99.90
2723;DHT22;1369;53.216;10.396;2024-03-23T07:08:49;8.90;99.90
2723;DHT22;1369;53.216;10.396;2024-03-23T07:11:22;9.30;99.90
2723;DHT22;1369;53.216;10.396;2024-03-23T07:13:50;9.40;99.90
2723;DHT22;1369;53.216;10.396;2024-03-23T07:16:16;9.60;99.90
2723;DHT22;1369;53.216;10.396;2024-03-23T07:18:42;9.60;99.90
2723;DHT22;1369;53.216;10.396;2024-03-23T07:21:07;9.70;99.90
2723;DHT22;1369;53.216;10.396;2024-03-23T07:23:33;9.70;99.90
2723;DHT22;1369;53.216;10.396;2024-03-23T07:26:04;9.70;99.90
2723;DHT22;1369;53.216;10.396;2024-03-23T07:28:33;9.70;99.90
2723;DHT22;1369;53.216;10.396;2024-03-23T07:31:07;9.80;99.90
2723;DHT22;1369;53.216;10.396;2024-03-23T07:33:35;9.90;99.90
2723;DHT22;1369;53.216;10.396;2024-03-23T07:36:01;10.00;99.90
2723;DHT22;1369;53.216;10.396;2024-03-23T07:38:28;10.10;99.90
2723;DHT22;1369;53.216;10.396;2024-03-23T07:43:30;10.20;99.90
2723;DHT22;1369;53.216;10.396;2024-03-23T07:45:55;10.40;99.90
2723;DHT22;1369;53.216;10.396;2024-03-23T07:48:21;10.30;99.90
2723;DHT22;1369;53.216;10.396;2024-03-23T07:51:06;10.50;99.90
2723;DHT22;1369;53.216;10.396;2024-03-23T07:53:32;10.70;99.90
2723;DHT22;1369;53.216;10.396;2024-03-23T07:56:02;10.80;99.90
2723;DHT22;1369;53.216;10.396;2024-03-23T07:58:28;10.70;99.90
2723;DHT22;1369;53.216;10.396;2024-03-23T08:00:55;10.60;99.90
2723;DHT22;1369;53.216;10.396;2024-03-23T08:03:20;10.50;99.90
2723;DHT22;1369;53.216;10.396;2024-03-23T08:05:46;10.40;99.90
2723;DHT22;1369;53.216;10.396;2024-03-23T08:08:12;10.50;99.90
2723;DHT22;1369;53.216;10.396;2024-03-23T08:10:51;10.60;99.90
2723;DHT22;1369;53.216;10.396;2024-03-23T08:13:17;10.80;99.90
2723;DHT22;1369;53.216;10.396;2024-03-23T08:15:43;11.20;99.90
2723;DHT22;1369;53.216;10.396;2024-03-23T08:18:11;11.60;99.90
2723;DHT22;1369;53.216;10.396;2024-03-23T08:20:37;11.80;99.90
2723;DHT22;1369;53.216;10.396;2024-03-23T08:23:04;12.10;99.90
2723;DHT22;1369;53.216;10.396;2024-03-23T08:25:33;12.20;99.90
2723;DHT22;1369;53.216;10.396;2024-03-23T08:27:59;12.60;99.90
2723;DHT22;1369;53.216;10.396;2024-03-23T08:30:25;13.00;99.90
2723;DHT22;1369;53.216;10.396;2024-03-23T08:32:51;13.30;99.90
2723;DHT22;1369;53.216;10.396;2024-03-23T08:35:17;13.60;99.90
2723;DHT22;1369;53.216;10.396;2024-03-23T08:37:43;13.90;99.90
2723;DHT22;1369;53.216;10.396;2024-03-23T08:40:09;14.30;99.90
2723;DHT22;1369;53.216;10.396;2024-03-23T08:42:35;14.90;99.90
2723;DHT22;1369;53.216;10.396;2024-03-23T08:45:00;15.20;99.90
2723;DHT22;1369;53.216;10.396;2024-03-23T08:47:26;15.60;99.90
2723;DHT22;1369;53.216;10.396;2024-03-23T08:49:52;16.30;99.90
2723;DHT22;1369;53.216;10.396;2024-03-23T08:52:18;16.90;99.90
2723;DHT22;1369;53.216;10.396;2024-03-23T08:54:43;17.40;99.90
2723;DHT22;1369;53.216;10.396;2024-03-23T08:57:09;17.50;99.90
2723;DHT22;1369;53.216;10.396;2024-03-23T08:59:35;17.90;99.90
2723;DHT22;1369;53.216;10.396;2024-03-23T09:02:01;18.20;99.90
2723;DHT22;1369;53.216;10.396;2024-03-23T09:04:26;18.40;99.90
2723;DHT22;1369;53.216;10.396;2024-03-23T09:06:52;18.60;99.90
2723;DHT22;1369;53.216;10.396;2024-03-23T09:09:17;18.60;99.90
2723;DHT22;1369;53.216;10.396;2024-03-23T09:11:45;18.20;99.90
2723;DHT22;1369;53.216;10.396;2024-03-23T09:14:11;18.10;99.90
2723;DHT22;1369;53.216;10.396;2024-03-23T09:16:36;18.00;99.90
2723;DHT22;1369;53.216;10.396;2024-03-23T09:19:02;17.70;99.90
2723;DHT22;1369;53.216;10.396;2024-03-23T09:21:28;17.50;99.90
2723;DHT22;1369;53.216;10.396;2024-03-23T09:23:54;17.20;99.90
2723;DHT22;1369;53.216;10.396;2024-03-23T09:26:19;17.00;99.90
2723;DHT22;1369;53.216;10.396;2024-03-23T09:28:48;16.90;99.90
2723;DHT22;1369;53.216;10.396;2024-03-23T09:31:14;16.40;99.90
2723;DHT22;1369;53.216;10.396;2024-03-23T09:33:41;15.90;99.90
2723;DHT22;1369;53.216;10.396;2024-03-23T09:36:08;15.60;99.90
2723;DHT22;1369;53.216;10.396;2024-03-23T09:38:34;15.30;99.90
2723;DHT22;1369;53.216;10.396;2024-03-23T09:41:00;15.30;99.90
2723;DHT22;1369;53.216;10.396;2024-03-23T09:43:28;15.50;99.90
2723;DHT22;1369;53.216;10.396;2024-03-23T09:45:53;15.30;99.90
2723;DHT22;1369;53.216;10.396;2024-03-23T09:48:19;15.00;99.90
2723;DHT22;1369;53.216;10.396;2024-03-23T09:50:46;14.80;99.90
2723;DHT22;1369;53.216;10.396;2024-03-23T09:53:14;14.70;99.90
2723;DHT22;1369;53.216;10.396;2024-03-23T09:55:41;14.80;99.90
2723;DHT22;1369;53.216;10.396;2024-03-23T09:58:08;15.30;99.90
2723;DHT22;1369;53.216;10.396;2024-03-23T10:00:37;15.80;99.90
2723;DHT22;1369;53.216;10.396;2024-03-23T10:03:04;16.30;99.90
2723;DHT22;1369;53.216;10.396;2024-03-23T10:05:32;16.20;99.90
2723;DHT22;1369;53.216;10.396;2024-03-23T10:08:00;16.20;99.90
2723;DHT22;1369;53.216;10.396;2024-03-23T10:10:26;16.40;99.90
2723;DHT22;1369;53.216;10.396;2024-03-23T10:12:51;16.10;99.90
2723;DHT22;1369;53.216;10.396;2024-03-23T10:15:24;15.90;99.90
2723;DHT22;1369;53.216;10.396;2024-03-23T10:17:50;15.80;99.90
2723;DHT22;1369;53.216;10.396;2024-03-23T10:20:20;15.70;99.90
2723;DHT22;1369;53.216;10.396;2024-03-23T10:22:48;15.60;99.90
2723;DHT22;1369;53.216;10.396;2024-03-23T10:25:15;15.60;99.90
2723;DHT22;1369;53.216;10.396;2024-03-23T10:27:40;15.60;99.90
2723;DHT22;1369;53.216;10.396;2024-03-23T10:30:11;15.60;99.90
2723;DHT22;1369;53.216;10.396;2024-03-23T10:32:37;15.40;99.90
2723;DHT22;1369;53.216;10.396;2024-03-23T10:35:22;15.20;99.90
2723;DHT22;1369;53.216;10.396;2024-03-23T10:37:48;15.20;99.90
2723;DHT22;1369;53.216;10.396;2024-03-23T10:40:15;15.30;99.90
2723;DHT22;1369;53.216;10.396;2024-03-23T10:42:41;15.30;99.90
2723;DHT22;1369;53.216;10.396;2024-03-23T10:45:08;15.10;99.90
2723;DHT22;1369;53.216;10.396;2024-03-23T10:47:35;14.90;99.90
2723;DHT22;1369;53.216;10.396;2024-03-23T10:50:05;14.80;99.90
2723;DHT22;1369;53.216;10.396;2024-03-23T10:52:34;14.70;99.90
2723;DHT22;1369;53.216;10.396;2024-03-23T10:55:04;14.80;99.90
2723;DHT22;1369;53.216;10.396;2024-03-23T10:57:40;14.60;99.90
2723;DHT22;1369;53.216;10.396;2024-03-23T11:00:07;14.40;99.90
2723;DHT22;1369;53.216;10.396;2024-03-23T11:02:34;14.10;99.90
2723;DHT22;1369;53.216;10.396;2024-03-23T11:04:59;13.80;99.90
2723;DHT22;1369;53.216;10.396;2024-03-23T11:07:32;13.50;99.90
2723;DHT22;1369;53.216;10.396;2024-03-23T11:09:59;13.30;99.90
2723;DHT22;1369;53.216;10.396;2024-03-23T11:12:30;13.40;99.90
2723;DHT22;1369;53.216;10.396;2024-03-23T11:17:28;13.60;99.90
2723;DHT22;1369;53.216;10.396;2024-03-23T11:25:12;13.70;99.90
2723;DHT22;1369;53.216;10.396;2024-03-23T11:27:37;13.90;99.90
2723;DHT22;1369;53.216;10.396;2024-03-23T11:30:30;14.20;99.90
2723;DHT22;1369;53.216;10.396;2024-03-23T11:32:56;14.20;99.90
2723;DHT22;1369;53.216;10.396;2024-03-23T11:35:30;14.10;99.90
2723;DHT22;1369;53.216;10.396;2024-03-23T11:38:03;13.90;99.90
2723;DHT22;1369;53.216;10.396;2024-03-23T11:40:29;13.70;99.90
2723;DHT22;1369;53.216;10.396;2024-03-23T11:43:00;13.40;99.90
2723;DHT22;1369;53.216;10.396;2024-03-23T11:45:27;13.20;99.90
2723;DHT22;1369;53.216;10.396;2024-03-23T11:48:09;12.90;99.90
2723;DHT22;1369;53.216;10.396;2024-03-23T11:50:40;12.70;99.90
2723;DHT22;1369;53.216;10.396;2024-03-23T11:53:16;12.40;99.90
2723;DHT22;1369;53.216;10.396;2024-03-23T11:55:46;12.10;99.90
2723;DHT22;1369;53.216;10.396;2024-03-23T11:58:22;11.70;99.90
2723;DHT22;1369;53.216;10.396;2024-03-23T12:01:02;11.60;99.90
2723;DHT22;1369;53.216;10.396;2024-03-23T12:03:29;11.70;99.90
2723;DHT22;1369;53.216;10.396;2024-03-23T12:05:59;12.10;99.90
2723;DHT22;1369;53.216;10.396;2024-03-23T12:08:30;12.30;99.90
2723;DHT22;1369;53.216;10.396;2024-03-23T12:11:12;12.50;99.90
2723;DHT22;1369;53.216;10.396;2024-03-23T12:13:41;12.80;99.90
2723;DHT22;1369;53.216;10.396;2024-03-23T12:16:20;12.80;99.90
2723;DHT22;1369;53.216;10.396;2024-03-23T12:18:48;12.60;99.90
2723;DHT22;1369;53.216;10.396;2024-03-23T12:21:15;12.50;99.90
2723;DHT22;1369;53.216;10.396;2024-03-23T12:23:41;12.50;99.90
2723;DHT22;1369;53.216;10.396;2024-03-23T12:26:07;12.50;99.90
2723;DHT22;1369;53.216;10.396;2024-03-23T12:28:33;12.60;99.90
2723;DHT22;1369;53.216;10.396;2024-03-23T12:30:59;12.60;99.90
2723;DHT22;1369;53.216;10.396;2024-03-23T12:33:25;12.40;99.90
2723;DHT22;1369;53.216;10.396;2024-03-23T12:35:51;12.20;99.90
2723;DHT22;1369;53.216;10.396;2024-03-23T12:38:17;12.20;99.90
2723;DHT22;1369;53.216;10.396;2024-03-23T12:40:52;12.10;99.90
2723;DHT22;1369;53.216;10.396;2024-03-23T12:43:18;12.20;99.90
2723;DHT22;1369;53.216;10.396;2024-03-23T12:45:48;12.40;99.90
2723;DHT22;1369;53.216;10.396;2024-03-23T12:48:14;13.00;99.90
2723;DHT22;1369;53.216;10.396;2024-03-23T12:50:39;13.60;99.90
2723;DHT22;1369;53.216;10.396;2024-03-23T12:53:05;14.00;99.90
2723;DHT22;1369;53.216;10.396;2024-03-23T12:55:31;14.40;99.90
2723;DHT22;1369;53.216;10.396;2024-03-23T12:57:57;14.60;99.90
2723;DHT22;1369;53.216;10.396;2024-03-23T13:00:22;14.80;99.90
2723;DHT22;1369;53.216;10.396;2024-03-23T13:02:48;15.00;99.90
2723;DHT22;1369;53.216;10.396;2024-03-23T13:05:14;15.20;99.90
2723;DHT22;1369;53.216;10.396;2024-03-23T13:07:40;15.10;99.90
2723;DHT22;1369;53.216;10.396;2024-03-23T13:10:06;15.00;99.90
2723;DHT22;1369;53.216;10.396;2024-03-23T13:12:32;14.70;99.90
2723;DHT22;1369;53.216;10.396;2024-03-23T13:14:59;14.60;99.90
2723;DHT22;1369;53.216;10.396;2024-03-23T13:17:25;14.40;99.90
2723;DHT22;1369;53.216;10.396;2024-03-23T13:19:52;14.10;99.90
2723;DHT22;1369;53.216;10.396;2024-03-23T13:22:18;13.60;99.90
2723;DHT22;1369;53.216;10.396;2024-03-23T13:24:44;13.00;99.90
2723;DHT22;1369;53.216;10.396;2024-03-23T13:27:10;12.30;99.90
2723;DHT22;1369;53.216;10.396;2024-03-23T13:29:36;11.50;99.90
2723;DHT22;1369;53.216;10.396;2024-03-23T13:32:03;11.00;99.90
2723;DHT22;1369;53.216;10.396;2024-03-23T13:34:29;10.40;99.90
2723;DHT22;1369;53.216;10.396;2024-03-23T13:36:57;10.10;99.90
2723;DHT22;1369;53.216;10.396;2024-03-23T13:39:25;9.90;99.90
2723;DHT22;1369;53.216;10.396;2024-03-23T13:41:53;9.70;99.90
2723;DHT22;1369;53.216;10.396;2024-03-23T13:44:20;9.30;99.90
2723;DHT22;1369;53.216;10.396;2024-03-23T13:46:45;9.40;99.90
2723;DHT22;1369;53.216;10.396;2024-03-23T13:49:32;10.00;99.90
2723;DHT22;1369;53.216;10.396;2024-03-23T13:51:58;9.60;99.90
2723;DHT22;1369;53.216;10.396;2024-03-23T13:54:25;9.50;99.90
2723;DHT22;1369;53.216;10.396;2024-03-23T13:56:52;9.40;99.90
2723;DHT22;1369;53.216;10.396;2024-03-23T13:59:18;9.20;99.90
2723;DHT22;1369;53.216;10.396;2024-03-23T14:01:44;9.60;99.90
2723;DHT22;1369;53.216;10.396;2024-03-23T14:04:11;8.90;99.90
2723;DHT22;1369;53.216;10.396;2024-03-23T14:06:37;9.30;99.90
2723;DHT22;1369;53.216;10.396;2024-03-23T14:09:03;8.80;99.90
2723;DHT22;1369;53.216;10.396;2024-03-23T14:11:29;8.60;99.90
2723;DHT22;1369;53.216;10.396;2024-03-23T14:13:55;8.40;99.90
2723;DHT22;1369;53.216;10.396;2024-03-23T14:16:20;8.40;99.90
2723;DHT22;1369;53.216;10.396;2024-03-23T14:18:49;8.40;99.90
2723;DHT22;1369;53.216;10.396;2024-03-23T14:21:14;8.10;99.90
2723;DHT22;1369;53.216;10.396;2024-03-23T14:23:40;8.20;99.90
2723;DHT22;1369;53.216;10.396;2024-03-23T14:26:08;8.00;99.90
2723;DHT22;1369;53.216;10.396;2024-03-23T14:28:34;7.90;99.90
2723;DHT22;1369;53.216;10.396;2024-03-23T14:31:00;7.90;99.90
2723;DHT22;1369;53.216;10.396;2024-03-23T14:33:26;8.00;99.90
2723;DHT22;1369;53.216;10.396;2024-03-23T14:35:53;7.90;99.90
2723;DHT22;1369;53.216;10.396;2024-03-23T14:38:19;8.00;99.90
2723;DHT22;1369;53.216;10.396;2024-03-23T14:40:45;8.20;99.90
2723;DHT22;1369;53.216;10.396;2024-03-23T14:43:11;8.50;99.90
2723;DHT22;1369;53.216;10.396;2024-03-23T14:45:37;8.80;99.90
2723;DHT22;1369;53.216;10.396;2024-03-23T14:48:03;8.90;99.90
2723;DHT22;1369;53.216;10.396;2024-03-23T14:50:28;8.90;99.90
2723;DHT22;1369;53.216;10.396;2024-03-23T14:52:54;8.90;99.90
2723;DHT22;1369;53.216;10.396;2024-03-23T14:55:19;9.00;99.90
2723;DHT22;1369;53.216;10.396;2024-03-23T14:57:45;9.00;99.90
2723;DHT22;1369;53.216;10.396;2024-03-23T15:00:11;9.50;99.90
2723;DHT22;1369;53.216;10.396;2024-03-23T15:02:37;9.90;99.90
2723;DHT22;1369;53.216;10.396;2024-03-23T15:05:04;10.30;99.90
2723;DHT22;1369;53.216;10.396;2024-03-23T15:07:33;10.30;99.90
2723;DHT22;1369;53.216;10.396;2024-03-23T15:09:58;10.30;99.90
2723;DHT22;1369;53.216;10.396;2024-03-23T15:12:24;10.30;99.90
2723;DHT22;1369;53.216;10.396;2024-03-23T15:14:50;10.20;99.90
2723;DHT22;1369;53.216;10.396;2024-03-23T15:17:15;10.00;99.90
2723;DHT22;1369;53.216;10.396;2024-03-23T15:19:41;9.80;99.90
2723;DHT22;1369;53.216;10.396;2024-03-23T15:22:08;9.80;99.90
2723;DHT22;1369;53.216;10.396;2024-03-23T15:24:34;9.60;99.90
2723;DHT22;1369;53.216;10.396;2024-03-23T15:27:02;9.60;99.90
2723;DHT22;1369;53.216;10.396;2024-03-23T15:29:28;9.50;99.90
2723;DHT22;1369;53.216;10.396;2024-03-23T15:31:53;9.50;99.90
2723;DHT22;1369;53.216;10.396;2024-03-23T15:34:19;9.40;99.90
2723;DHT22;1369;53.216;10.396;2024-03-23T15:36:47;9.40;99.90
2723;DHT22;1369;53.216;10.396;2024-03-23T15:39:14;9.40;99.90
2723;DHT22;1369;53.216;10.396;2024-03-23T15:41:40;9.40;99.90
2723;DHT22;1369;53.216;10.396;2024-03-23T15:44:06;9.20;99.90
2723;DHT22;1369;53.216;10.396;2024-03-23T15:46:31;9.10;99.90
2723;DHT22;1369;53.216;10.396;2024-03-23T15:48:57;9.00;99.90
2723;DHT22;1369;53.216;10.396;2024-03-23T15:51:23;8.80;99.90
2723;DHT22;1369;53.216;10.396;2024-03-23T15:53:49;8.70;99.90
2723;DHT22;1369;53.216;10.396;2024-03-23T15:56:17;8.60;99.90
2723;DHT22;1369;53.216;10.396;2024-03-23T15:58:43;8.60;99.90
2723;DHT22;1369;53.216;10.396;2024-03-23T16:01:09;8.40;99.90
2723;DHT22;1369;53.216;10.396;2024-03-23T16:03:36;8.60;99.90
2723;DHT22;1369;53.216;10.396;2024-03-23T16:06:03;8.90;99.90
2723;DHT22;1369;53.216;10.396;2024-03-23T16:08:30;9.00;99.90
2723;DHT22;1369;53.216;10.396;2024-03-23T16:11:03;9.30;99.90
2723;DHT22;1369;53.216;10.396;2024-03-23T16:13:30;9.30;99.90
2723;DHT22;1369;53.216;10.396;2024-03-23T16:16:00;9.40;99.90
2723;DHT22;1369;53.216;10.396;2024-03-23T16:18:28;9.30;99.90
2723;DHT22;1369;53.216;10.396;2024-03-23T16:20:56;9.10;99.90
2723;DHT22;1369;53.216;10.396;2024-03-23T16:23:22;9.10;99.90
2723;DHT22;1369;53.216;10.396;2024-03-23T16:25:49;9.00;99.90
2723;DHT22;1369;53.216;10.396;2024-03-23T16:30:57;8.90;99.90
2723;DHT22;1369;53.216;10.396;2024-03-23T16:33:24;8.80;99.90
2723;DHT22;1369;53.216;10.396;2024-03-23T16:36:08;8.60;99.90
2723;DHT22;1369;53.216;10.396;2024-03-23T16:38:35;8.60;99.90
2723;DHT22;1369;53.216;10.396;2024-03-23T16:41:02;8.50;99.90
2723;DHT22;1369;53.216;10.396;2024-03-23T16:43:28;8.50;99.90
2723;DHT22;1369;53.216;10.396;2024-03-23T16:46:02;8.60;99.90
2723;DHT22;1369;53.216;10.396;2024-03-23T16:48:29;8.40;99.90
2723;DHT22;1369;53.216;10.396;2024-03-23T16:50:59;8.10;99.90
2723;DHT22;1369;53.216;10.396;2024-03-23T16:53:26;7.80;99.90
2723;DHT22;1369;53.216;10.396;2024-03-23T16:56:09;8.00;99.90
2723;DHT22;1369;53.216;10.396;2024-03-23T16:58:36;7.50;99.90
2723;DHT22;1369;53.216;10.396;2024-03-23T17:01:10;7.50;99.90